sensor_id;sensor_type;location;lat;lon;timestamp;pressure;altitude;pressure_sealevel;temperature;humidity
15314;BME280;7757;52.626;4.746;2022-09-29T00:01:33;99797.41;;;18.18;61.73
15314;BME280;7757;52.626;4.746;2022-09-29T00:04:00;99796.06;;;18.15;61.70
15314;BME280;7757;52.626;4.746;2022-09-29T00:06:27;99792.91;;;18.33;61.12
15314;BME280;7757;52.626;4.746;2022-09-29T00:08:56;99790.47;;;18.32;61.26
15314;BME280;7757;52.626;4.746;2022-09-29T00:11:23;99801.53;;;18.30;61.19
15314;BME280;7757;52.626;4.746;2022-09-29T00:13:49;99787.47;;;18.33;60.67
15314;BME280;7757;52.626;4.746;2022-09-29T00:16:16;99794.81;;;18.33;60.88
15314;BME280;7757;52.626;4.746;2022-09-29T00:18:42;99798.28;;;18.28;60.96
15314;BME280;7757;52.626;4.746;2022-09-29T00:21:12;99799.94;;;18.29;60.91
15314;BME280;7757;52.626;4.746;2022-09-29T00:23:38;99799.94;;;18.29;61.22
15314;BME280;7757;52.626;4.746;2022-09-29T00:26:10;99797.75;;;18.26;61.08
15314;BME280;7757;52.626;4.746;2022-09-29T00:28:40;99794.44;;;18.19;61.05
15314;BME280;7757;52.626;4.746;2022-09-29T00:31:09;99794.75;;;18.28;60.94
15314;BME280;7757;52.626;4.746;2022-09-29T00:33:37;99799.38;;;18.27;60.93
15314;BME280;7757;52.626;4.746;2022-09-29T00:36:05;99802.09;;;18.27;60.80
15314;BME280;7757;52.626;4.746;2022-09-29T00:38:33;99795.84;;;18.27;60.79
15314;BME280;7757;52.626;4.746;2022-09-29T00:40:59;99803.84;;;18.07;61.30
15314;BME280;7757;52.626;4.746;2022-09-29T00:43:49;99804.41;;;18.14;61.28
15314;BME280;7757;52.626;4.746;2022-09-29T00:46:18;99798.75;;;18.15;61.00
15314;BME280;7757;52.626;4.746;2022-09-29T00:48:48;99794.13;;;18.11;61.05
15314;BME280;7757;52.626;4.746;2022-09-29T00:51:16;99791.41;;;18.11;61.11
15314;BME280;7757;52.626;4.746;2022-09-29T00:53:43;99787.94;;;18.15;60.98
15314;BME280;7757;52.626;4.746;2022-09-29T00:56:12;99794.13;;;18.11;61.26
15314;BME280;7757;52.626;4.746;2022-09-29T00:58:42;99797.13;;;18.14;60.95
15314;BME280;7757;52.626;4.746;2022-09-29T01:01:12;99789.00;;;18.14;60.86
15314;BME280;7757;52.626;4.746;2022-09-29T01:03:41;99794.97;;;18.16;60.65
15314;BME280;7757;52.626;4.746;2022-09-29T01:06:14;99792.53;;;18.15;60.97
15314;BME280;7757;52.626;4.746;2022-09-29T01:08:45;99790.63;;;18.15;60.77
15314;BME280;7757;52.626;4.746;2022-09-29T01:11:17;99769.19;;;18.04;61.04
15314;BME280;7757;52.626;4.746;2022-09-29T01:13:46;99786.53;;;18.13;60.96
15314;BME280;7757;52.626;4.746;2022-09-29T01:16:15;99788.47;;;18.12;60.64
15314;BME280;7757;52.626;4.746;2022-09-29T01:18:42;99788.69;;;18.11;61.02
15314;BME280;7757;52.626;4.746;2022-09-29T01:21:15;99786.53;;;18.13;60.64
15314;BME280;7757;52.626;4.746;2022-09-29T01:27:08;99788.16;;;18.09;60.78
15314;BME280;7757;52.626;4.746;2022-09-29T01:29:45;99788.41;;;18.07;60.80
15314;BME280;7757;52.626;4.746;2022-09-29T01:32:23;99783.28;;;18.11;60.78
15314;BME280;7757;52.626;4.746;2022-09-29T01:34:59;99785.19;;;18.10;60.62
15314;BME280;7757;52.626;4.746;2022-09-29T01:37:45;99786.28;;;18.09;60.63
15314;BME280;7757;52.626;4.746;2022-09-29T01:40:19;99791.94;;;18.08;60.44
15314;BME280;7757;52.626;4.746;2022-09-29T01:42:54;99793.81;;;18.07;60.70
15314;BME280;7757;52.626;4.746;2022-09-29T01:45:28;99790.03;;;18.08;60.44
15314;BME280;7757;52.626;4.746;2022-09-29T01:47:59;99783.47;;;17.99;60.54
15314;BME280;7757;52.626;4.746;2022-09-29T01:50:33;99787.84;;;18.05;60.61
15314;BME280;7757;52.626;4.746;2022-09-29T01:53:06;99797.03;;;18.04;60.60
15314;BME280;7757;52.626;4.746;2022-09-29T01:55:37;99797.31;;;18.03;60.35
15314;BME280;7757;52.626;4.746;2022-09-29T01:58:09;99801.38;;;18.05;60.47
15314;BME280;7757;52.626;4.746;2022-09-29T02:00:43;99802.72;;;18.03;60.47
15314;BME280;7757;52.626;4.746;2022-09-29T02:03:16;99801.91;;;18.02;60.71
15314;BME280;7757;52.626;4.746;2022-09-29T02:05:46;99807.84;;;17.99;60.47
15314;BME280;7757;52.626;4.746;2022-09-29T02:08:17;99800.00;;;17.98;60.44
15314;BME280;7757;52.626;4.746;2022-09-29T02:10:49;99806.50;;;18.02;60.48
15314;BME280;7757;52.626;4.746;2022-09-29T02:13:19;99807.59;;;18.01;60.62
15314;BME280;7757;52.626;4.746;2022-09-29T02:15:50;99799.47;;;18.01;60.42
15314;BME280;7757;52.626;4.746;2022-09-29T02:18:23;99810.53;;;17.99;60.60
15314;BME280;7757;52.626;4.746;2022-09-29T02:20:52;99806.78;;;18.00;60.42
15314;BME280;7757;52.626;4.746;2022-09-29T02:23:19;99805.94;;;18.00;60.18
15314;BME280;7757;52.626;4.746;2022-09-29T02:25:46;99801.34;;;18.00;60.47
15314;BME280;7757;52.626;4.746;2022-09-29T02:28:14;99795.44;;;18.03;60.23
15314;BME280;7757;52.626;4.746;2022-09-29T02:30:42;99793.75;;;17.97;60.42
15314;BME280;7757;52.626;4.746;2022-09-29T02:33:17;99800.00;;;17.98;60.41
15314;BME280;7757;52.626;4.746;2022-09-29T02:35:53;99800.22;;;17.96;60.54
15314;BME280;7757;52.626;4.746;2022-09-29T02:38:26;99800.75;;;17.93;60.43
15314;BME280;7757;52.626;4.746;2022-09-29T02:40:59;99792.63;;;17.93;60.11
15314;BME280;7757;52.626;4.746;2022-09-29T02:43:53;99795.63;;;17.92;60.12
15314;BME280;7757;52.626;4.746;2022-09-29T02:46:38;99794.28;;;17.94;60.03
15314;BME280;7757;52.626;4.746;2022-09-29T02:49:20;99802.63;;;17.93;60.07
15314;BME280;7757;52.626;4.746;2022-09-29T02:51:54;99790.94;;;17.82;60.04
15314;BME280;7757;52.626;4.746;2022-09-29T02:54:34;99799.06;;;17.87;60.45
15314;BME280;7757;52.626;4.746;2022-09-29T02:57:14;99794.50;;;17.88;60.39
15314;BME280;7757;52.626;4.746;2022-09-29T02:59:50;99801.53;;;17.89;60.12
15314;BME280;7757;52.626;4.746;2022-09-29T03:02:22;99800.44;;;17.90;60.36
15314;BME280;7757;52.626;4.746;2022-09-29T03:04:49;99808.28;;;17.86;60.39
15314;BME280;7757;52.626;4.746;2022-09-29T03:07:17;99806.66;;;17.85;60.12
15314;BME280;7757;52.626;4.746;2022-09-29T03:09:44;99803.13;;;17.84;60.45
15314;BME280;7757;52.626;4.746;2022-09-29T03:12:11;99808.81;;;17.83;60.42
15314;BME280;7757;52.626;4.746;2022-09-29T03:14:37;99811.75;;;17.81;60.26
15314;BME280;7757;52.626;4.746;2022-09-29T03:17:04;99810.41;;;17.84;60.13
15314;BME280;7757;52.626;4.746;2022-09-29T03:19:30;99810.94;;;17.81;60.04
15314;BME280;7757;52.626;4.746;2022-09-29T03:21:57;99813.41;;;17.82;59.84
15314;BME280;7757;52.626;4.746;2022-09-29T03:24:25;99814.97;;;17.78;60.26
15314;BME280;7757;52.626;4.746;2022-09-29T03:26:51;99819.88;;;17.81;60.22
15314;BME280;7757;52.626;4.746;2022-09-29T03:29:18;99824.16;;;17.77;60.61
15314;BME280;7757;52.626;4.746;2022-09-29T03:31:44;99813.91;;;17.79;59.90
15314;BME280;7757;52.626;4.746;2022-09-29T03:34:11;99814.72;;;17.80;60.05
15314;BME280;7757;52.626;4.746;2022-09-29T03:36:37;99814.34;;;17.71;59.96
15314;BME280;7757;52.626;4.746;2022-09-29T03:39:05;99816.00;;;17.72;59.81
15314;BME280;7757;52.626;4.746;2022-09-29T03:41:33;99817.66;;;17.73;59.60
15314;BME280;7757;52.626;4.746;2022-09-29T03:44:00;99817.94;;;17.77;59.83
15314;BME280;7757;52.626;4.746;2022-09-29T03:46:27;99821.72;;;17.76;59.78
15314;BME280;7757;52.626;4.746;2022-09-29T03:48:53;99825.47;;;17.75;59.79
15314;BME280;7757;52.626;4.746;2022-09-29T03:51:20;99826.28;;;17.70;59.68
15314;BME280;7757;52.626;4.746;2022-09-29T03:53:46;99837.94;;;17.76;59.68
15314;BME280;7757;52.626;4.746;2022-09-29T03:56:13;99830.59;;;17.71;59.81
15314;BME280;7757;52.626;4.746;2022-09-29T03:58:41;99838.47;;;17.73;59.91
15314;BME280;7757;52.626;4.746;2022-09-29T04:01:08;99830.59;;;17.71;59.83
15314;BME280;7757;52.626;4.746;2022-09-29T04:03:34;99831.13;;;17.68;60.02
15314;BME280;7757;52.626;4.746;2022-09-29T04:06:01;99827.34;;;17.69;59.96
15314;BME280;7757;52.626;4.746;2022-09-29T04:08:28;99831.38;;;17.67;59.43
15314;BME280;7757;52.626;4.746;2022-09-29T04:10:54;99831.13;;;17.68;60.05
15314;BME280;7757;52.626;4.746;2022-09-29T04:13:21;99834.59;;;17.64;59.61
15314;BME280;7757;52.626;4.746;2022-09-29T04:15:49;99841.94;;;17.68;59.32
15314;BME280;7757;52.626;4.746;2022-09-29T04:18:15;99839.47;;;17.67;59.16
15314;BME280;7757;52.626;4.746;2022-09-29T04:20:42;99843.81;;;17.68;59.66
15314;BME280;7757;52.626;4.746;2022-09-29T04:23:08;99841.63;;;17.65;59.20
15314;BME280;7757;52.626;4.746;2022-09-29T04:25:35;99845.59;;;17.57;59.39
15314;BME280;7757;52.626;4.746;2022-09-29T04:28:01;99846.97;;;17.60;59.68
15314;BME280;7757;52.626;4.746;2022-09-29T04:30:28;99846.97;;;17.60;59.86
15314;BME280;7757;52.626;4.746;2022-09-29T04:32:56;99854.28;;;17.59;59.52
15314;BME280;7757;52.626;4.746;2022-09-29T04:35:22;99853.16;;;17.55;59.42
15314;BME280;7757;52.626;4.746;2022-09-29T04:37:53;99853.78;;;17.41;59.96
15314;BME280;7757;52.626;4.746;2022-09-29T04:40:21;99853.88;;;17.51;59.28
15314;BME280;7757;52.626;4.746;2022-09-29T04:42:47;99863.16;;;17.55;59.56
15314;BME280;7757;52.626;4.746;2022-09-29T04:45:14;99859.75;;;17.43;59.54
15314;BME280;7757;52.626;4.746;2022-09-29T04:47:41;99862.00;;;17.51;59.22
15314;BME280;7757;52.626;4.746;2022-09-29T04:50:09;99862.25;;;17.49;59.19
15314;BME280;7757;52.626;4.746;2022-09-29T04:52:35;99867.75;;;17.54;59.47
15314;BME280;7757;52.626;4.746;2022-09-29T04:55:02;99862.91;;;17.56;59.52
15314;BME280;7757;52.626;4.746;2022-09-29T04:57:29;99867.50;;;17.56;59.66
15314;BME280;7757;52.626;4.746;2022-09-29T04:59:56;99873.16;;;17.54;59.38
15314;BME280;7757;52.626;4.746;2022-09-29T05:02:22;99864.78;;;17.56;59.36
15314;BME280;7757;52.626;4.746;2022-09-29T05:04:49;99869.06;;;17.30;58.85
15314;BME280;7757;52.626;4.746;2022-09-29T05:07:16;99871.91;;;17.40;59.70
15314;BME280;7757;52.626;4.746;2022-09-29T05:09:43;99872.53;;;17.47;59.19
15314;BME280;7757;52.626;4.746;2022-09-29T05:12:09;99866.38;;;17.30;59.51
15314;BME280;7757;52.626;4.746;2022-09-29T05:14:36;99869.72;;;17.15;60.36
15314;BME280;7757;52.626;4.746;2022-09-29T05:17:02;99874.34;;;17.42;59.30
15314;BME280;7757;52.626;4.746;2022-09-29T05:19:29;99867.03;;;17.42;59.47
15314;BME280;7757;52.626;4.746;2022-09-29T05:21:56;99867.41;;;17.24;60.04
15314;BME280;7757;52.626;4.746;2022-09-29T05:24:24;99860.53;;;17.16;59.95
15314;BME280;7757;52.626;4.746;2022-09-29T05:26:50;99878.72;;;17.21;60.14
15314;BME280;7757;52.626;4.746;2022-09-29T05:29:17;99875.00;;;17.27;59.22
15314;BME280;7757;52.626;4.746;2022-09-29T05:31:44;99873.38;;;17.26;60.12
15314;BME280;7757;52.626;4.746;2022-09-29T05:34:10;99883.47;;;17.57;59.24
15314;BME280;7757;52.626;4.746;2022-09-29T05:36:37;99888.13;;;17.62;59.93
15314;BME280;7757;52.626;4.746;2022-09-29T05:39:03;99889.53;;;17.69;59.82
15314;BME280;7757;52.626;4.746;2022-09-29T05:41:31;99891.47;;;17.74;59.90
15314;BME280;7757;52.626;4.746;2022-09-29T05:43:58;99891.75;;;17.77;59.59
15314;BME280;7757;52.626;4.746;2022-09-29T05:46:26;99896.72;;;17.86;59.09
15314;BME280;7757;52.626;4.746;2022-09-29T05:48:52;99896.72;;;17.86;58.94
15314;BME280;7757;52.626;4.746;2022-09-29T05:51:21;99890.19;;;17.81;58.83
15314;BME280;7757;52.626;4.746;2022-09-29T05:53:48;99900.81;;;17.88;59.43
15314;BME280;7757;52.626;4.746;2022-09-29T05:56:17;99900.84;;;17.93;59.03
15314;BME280;7757;52.626;4.746;2022-09-29T05:58:45;99906.81;;;17.95;59.26
15314;BME280;7757;52.626;4.746;2022-09-29T06:01:13;99910.09;;;17.97;58.93
15314;BME280;7757;52.626;4.746;2022-09-29T06:03:41;99912.53;;;17.99;58.66
15314;BME280;7757;52.626;4.746;2022-09-29T06:06:09;99916.38;;;18.03;58.91
15314;BME280;7757;52.626;4.746;2022-09-29T06:08:37;99917.44;;;18.02;58.94
15314;BME280;7757;52.626;4.746;2022-09-29T06:11:05;99912.84;;;18.02;58.61
15314;BME280;7757;52.626;4.746;2022-09-29T06:13:32;99924.00;;;18.11;58.31
15314;BME280;7757;52.626;4.746;2022-09-29T06:16:00;99921.59;;;18.14;58.71
15314;BME280;7757;52.626;4.746;2022-09-29T06:18:27;99924.09;;;18.21;58.37
15314;BME280;7757;52.626;4.746;2022-09-29T06:20:59;99912.69;;;18.19;58.18
15314;BME280;7757;52.626;4.746;2022-09-29T06:23:26;99927.91;;;18.25;58.30
15314;BME280;7757;52.626;4.746;2022-09-29T06:25:54;99936.34;;;18.28;58.35
15314;BME280;7757;52.626;4.746;2022-09-29T06:28:21;99924.13;;;18.26;58.12
15314;BME280;7757;52.626;4.746;2022-09-29T06:30:48;99933.41;;;18.35;58.17
15314;BME280;7757;52.626;4.746;2022-09-29T06:33:15;99930.72;;;18.35;58.21
15314;BME280;7757;52.626;4.746;2022-09-29T06:35:45;99937.69;;;18.58;58.38
15314;BME280;7757;52.626;4.746;2022-09-29T06:38:29;99946.00;;;18.83;57.79
15314;BME280;7757;52.626;4.746;2022-09-29T06:40:56;99949.59;;;18.99;57.59
15314;BME280;7757;52.626;4.746;2022-09-29T06:43:22;99939.97;;;19.28;56.45
15314;BME280;7757;52.626;4.746;2022-09-29T06:45:49;99950.97;;;19.48;55.85
15314;BME280;7757;52.626;4.746;2022-09-29T06:48:17;99950.69;;;19.55;55.67
15314;BME280;7757;52.626;4.746;2022-09-29T06:50:44;99952.38;;;19.66;55.65
15314;BME280;7757;52.626;4.746;2022-09-29T06:53:10;99953.72;;;19.73;55.37
15314;BME280;7757;52.626;4.746;2022-09-29T06:55:36;99964.91;;;19.92;54.79
15314;BME280;7757;52.626;4.746;2022-09-29T06:58:03;99967.13;;;20.10;54.08
15314;BME280;7757;52.626;4.746;2022-09-29T07:00:30;99972.59;;;20.25;53.83
15314;BME280;7757;52.626;4.746;2022-09-29T07:02:58;99965.53;;;20.34;54.07
15314;BME280;7757;52.626;4.746;2022-09-29T07:05:26;99976.13;;;20.36;53.61
15314;BME280;7757;52.626;4.746;2022-09-29T07:07:53;99972.88;;;20.44;53.50
15314;BME280;7757;52.626;4.746;2022-09-29T07:10:20;99973.97;;;20.53;53.08
15314;BME280;7757;52.626;4.746;2022-09-29T07:12:46;99975.88;;;20.63;52.88
15314;BME280;7757;52.626;4.746;2022-09-29T07:15:13;99976.66;;;20.78;52.66
15314;BME280;7757;52.626;4.746;2022-09-29T07:17:39;99984.00;;;20.83;52.45
15314;BME280;7757;52.626;4.746;2022-09-29T07:20:06;99983.16;;;20.97;52.56
15314;BME280;7757;52.626;4.746;2022-09-29T07:22:34;99991.31;;;21.07;51.83
15314;BME280;7757;52.626;4.746;2022-09-29T07:25:01;99979.91;;;21.10;51.98
15314;BME280;7757;52.626;4.746;2022-09-29T07:27:27;99985.34;;;21.10;51.39
15314;BME280;7757;52.626;4.746;2022-09-29T07:29:54;99989.41;;;21.13;52.04
15314;BME280;7757;52.626;4.746;2022-09-29T07:32:20;99997.53;;;21.18;52.11
15314;BME280;7757;52.626;4.746;2022-09-29T07:34:47;99997.84;;;21.17;51.68
15314;BME280;7757;52.626;4.746;2022-09-29T07:37:13;100002.72;;;21.14;52.00
15314;BME280;7757;52.626;4.746;2022-09-29T07:39:41;100001.63;;;21.16;51.79
15314;BME280;7757;52.626;4.746;2022-09-29T07:42:08;100003.81;;;21.13;51.99
15314;BME280;7757;52.626;4.746;2022-09-29T07:44:34;100002.16;;;21.18;51.72
15314;BME280;7757;52.626;4.746;2022-09-29T07:47:01;100005.13;;;21.31;52.39
15314;BME280;7757;52.626;4.746;2022-09-29T07:49:27;100005.06;;;21.46;51.70
15314;BME280;7757;52.626;4.746;2022-09-29T07:51:54;100010.44;;;21.61;51.12
15314;BME280;7757;52.626;4.746;2022-09-29T07:54:21;100010.66;;;21.80;51.00
15314;BME280;7757;52.626;4.746;2022-09-29T07:56:49;100012.75;;;21.98;51.04
15314;BME280;7757;52.626;4.746;2022-09-29T07:59:16;100005.34;;;22.14;51.32
15314;BME280;7757;52.626;4.746;2022-09-29T08:01:42;100012.28;;;22.30;51.27
15314;BME280;7757;52.626;4.746;2022-09-29T08:04:09;100008.84;;;22.53;51.30
15314;BME280;7757;52.626;4.746;2022-09-29T08:06:35;100022.41;;;22.63;50.15
15314;BME280;7757;52.626;4.746;2022-09-29T08:09:02;100024.16;;;22.83;50.73
15314;BME280;7757;52.626;4.746;2022-09-29T08:11:29;100034.94;;;22.98;50.02
15314;BME280;7757;52.626;4.746;2022-09-29T08:13:57;100044.94;;;23.08;50.26
15314;BME280;7757;52.626;4.746;2022-09-29T08:16:23;100042.41;;;23.16;50.36
15314;BME280;7757;52.626;4.746;2022-09-29T08:18:50;100041.84;;;23.19;50.24
15314;BME280;7757;52.626;4.746;2022-09-29T08:21:17;100044.75;;;23.28;50.18
15314;BME280;7757;52.626;4.746;2022-09-29T08:23:43;100050.81;;;23.49;49.54
15314;BME280;7757;52.626;4.746;2022-09-29T08:26:11;100054.78;;;23.61;49.63
15314;BME280;7757;52.626;4.746;2022-09-29T08:28:39;100061.00;;;23.67;49.25
15314;BME280;7757;52.626;4.746;2022-09-29T08:31:09;100070.53;;;23.69;49.21
15314;BME280;7757;52.626;4.746;2022-09-29T08:33:37;100060.34;;;23.75;48.84
15314;BME280;7757;52.626;4.746;2022-09-29T08:36:05;100067.09;;;23.82;48.43
15314;BME280;7757;52.626;4.746;2022-09-29T08:38:39;100069.59;;;23.98;48.78
15314;BME280;7757;52.626;4.746;2022-09-29T08:41:19;100071.91;;;24.09;48.65
15314;BME280;7757;52.626;4.746;2022-09-29T08:43:49;100070.78;;;24.15;48.46
15314;BME280;7757;52.626;4.746;2022-09-29T08:46:23;100073.69;;;24.24;47.84
15314;BME280;7757;52.626;4.746;2022-09-29T08:48:52;100072.19;;;24.31;47.71
15314;BME280;7757;52.626;4.746;2022-09-29T08:51:24;100070.06;;;24.47;48.08
15314;BME280;7757;52.626;4.746;2022-09-29T08:53:55;100077.69;;;24.50;47.93
15314;BME280;7757;52.626;4.746;2022-09-29T08:56:24;100073.44;;;24.58;47.43
15314;BME280;7757;52.626;4.746;2022-09-29T08:58:51;100073.91;;;24.65;47.16
15314;BME280;7757;52.626;4.746;2022-09-29T09:01:26;100085.25;;;24.72;47.23
15314;BME280;7757;52.626;4.746;2022-09-29T09:07:01;100080.69;;;24.86;46.67
15314;BME280;7757;52.626;4.746;2022-09-29T09:09:44;100085.88;;;24.87;46.56
15314;BME280;7757;52.626;4.746;2022-09-29T09:12:29;100096.72;;;24.92;46.76
15314;BME280;7757;52.626;4.746;2022-09-29T09:15:03;100097.53;;;24.93;46.65
15314;BME280;7757;52.626;4.746;2022-09-29T09:17:53;100098.78;;;25.01;46.59
15314;BME280;7757;52.626;4.746;2022-09-29T09:20:31;100095.38;;;25.09;46.39
15314;BME280;7757;52.626;4.746;2022-09-29T09:23:00;100095.59;;;25.12;45.81
15314;BME280;7757;52.626;4.746;2022-09-29T09:25:33;100104.72;;;24.70;45.88
15314;BME280;7757;52.626;4.746;2022-09-29T09:28:03;100096.94;;;23.98;45.77
15314;BME280;7757;52.626;4.746;2022-09-29T09:30:36;100104.63;;;24.38;45.10
15314;BME280;7757;52.626;4.746;2022-09-29T09:33:11;100103.47;;;24.44;44.85
15314;BME280;7757;52.626;4.746;2022-09-29T09:35:43;100110.84;;;24.43;44.31
15314;BME280;7757;52.626;4.746;2022-09-29T09:38:14;100104.25;;;24.44;44.56
15314;BME280;7757;52.626;4.746;2022-09-29T09:40:44;100095.13;;;24.35;44.48
15314;BME280;7757;52.626;4.746;2022-09-29T09:43:15;100104.19;;;24.31;44.98
15314;BME280;7757;52.626;4.746;2022-09-29T09:45:47;100098.88;;;24.21;44.85
15314;BME280;7757;52.626;4.746;2022-09-29T09:48:20;100099.47;;;24.18;44.70
15314;BME280;7757;52.626;4.746;2022-09-29T09:50:50;100102.94;;;24.23;45.34
15314;BME280;7757;52.626;4.746;2022-09-29T09:53:21;100104.50;;;24.06;45.00
15314;BME280;7757;52.626;4.746;2022-09-29T09:55:59;100108.81;;;24.12;45.32
15314;BME280;7757;52.626;4.746;2022-09-29T09:58:37;100104.03;;;23.99;45.65
15314;BME280;7757;52.626;4.746;2022-09-29T10:01:08;100111.94;;;24.00;45.30
15314;BME280;7757;52.626;4.746;2022-09-29T10:03:37;100111.16;;;23.95;45.57
15314;BME280;7757;52.626;4.746;2022-09-29T10:06:05;100111.72;;;23.97;45.33
15314;BME280;7757;52.626;4.746;2022-09-29T10:08:34;100110.50;;;23.84;45.78
15314;BME280;7757;52.626;4.746;2022-09-29T10:11:15;100113.88;;;23.76;46.15
15314;BME280;7757;52.626;4.746;2022-09-29T10:13:47;100108.44;;;23.71;46.24
15314;BME280;7757;52.626;4.746;2022-09-29T10:16:17;100115.31;;;23.68;46.38
15314;BME280;7757;52.626;4.746;2022-09-29T10:18:50;100119.72;;;23.64;45.89
15314;BME280;7757;52.626;4.746;2022-09-29T10:21:19;100116.75;;;23.61;46.38
15314;BME280;7757;52.626;4.746;2022-09-29T10:23:50;100114.03;;;23.61;45.91
15314;BME280;7757;52.626;4.746;2022-09-29T10:26:18;100118.50;;;23.52;46.38
15314;BME280;7757;52.626;4.746;2022-09-29T10:28:52;100118.59;;;23.37;47.03
15314;BME280;7757;52.626;4.746;2022-09-29T10:31:25;100115.28;;;22.77;47.46
15314;BME280;7757;52.626;4.746;2022-09-29T10:33:56;100116.13;;;22.23;48.79
15314;BME280;7757;52.626;4.746;2022-09-29T10:36:25;100124.56;;;22.27;49.24
15314;BME280;7757;52.626;4.746;2022-09-29T10:38:52;100121.34;;;22.15;49.27
15314;BME280;7757;52.626;4.746;2022-09-29T10:41:20;100122.75;;;22.07;49.88
15314;BME280;7757;52.626;4.746;2022-09-29T10:43:49;100123.56;;;22.03;49.89
15314;BME280;7757;52.626;4.746;2022-09-29T10:46:34;100130.16;;;21.87;50.49
15314;BME280;7757;52.626;4.746;2022-09-29T10:49:12;100131.06;;;22.36;50.00
15314;BME280;7757;52.626;4.746;2022-09-29T10:51:40;100128.66;;;22.73;49.23
15314;BME280;7757;52.626;4.746;2022-09-29T10:54:08;100128.59;;;22.84;48.24
15314;BME280;7757;52.626;4.746;2022-09-29T10:56:45;100127.47;;;22.90;48.65
15314;BME280;7757;52.626;4.746;2022-09-29T10:59:12;100137.28;;;22.91;48.72
15314;BME280;7757;52.626;4.746;2022-09-29T11:01:43;100140.81;;;22.91;48.27
15314;BME280;7757;52.626;4.746;2022-09-29T11:04:17;100145.94;;;22.98;48.59
15314;BME280;7757;52.626;4.746;2022-09-29T11:06:44;100141.88;;;22.95;48.74
15314;BME280;7757;52.626;4.746;2022-09-29T11:09:26;100144.03;;;22.98;48.15
15314;BME280;7757;52.626;4.746;2022-09-29T11:11:54;100147.28;;;23.05;48.23
15314;BME280;7757;52.626;4.746;2022-09-29T11:14:26;100150.47;;;23.12;47.86
15314;BME280;7757;52.626;4.746;2022-09-29T11:16:55;100152.88;;;23.19;48.04
15314;BME280;7757;52.626;4.746;2022-09-29T11:19:24;100158.59;;;23.22;48.21
15314;BME280;7757;52.626;4.746;2022-09-29T11:27:59;100158.84;;;23.21;48.33
15314;BME280;7757;52.626;4.746;2022-09-29T11:30:43;100160.13;;;22.51;48.64
15314;BME280;7757;52.626;4.746;2022-09-29T11:33:22;100143.25;;;22.93;48.58
15314;BME280;7757;52.626;4.746;2022-09-29T11:35:59;100164.34;;;23.16;47.54
15314;BME280;7757;52.626;4.746;2022-09-29T11:38:49;100157.63;;;23.08;48.32
15314;BME280;7757;52.626;4.746;2022-09-29T11:41:31;100167.16;;;23.06;48.49
15314;BME280;7757;52.626;4.746;2022-09-29T11:44:13;100169.34;;;23.04;47.60
15314;BME280;7757;52.626;4.746;2022-09-29T11:46:55;100166.94;;;23.02;48.11
15314;BME280;7757;52.626;4.746;2022-09-29T11:52:47;100173.94;;;23.13;47.95
15314;BME280;7757;52.626;4.746;2022-09-29T11:55:29;100175.28;;;23.16;47.60
15314;BME280;7757;52.626;4.746;2022-09-29T11:58:13;100175.56;;;23.14;47.59
15314;BME280;7757;52.626;4.746;2022-09-29T12:00:59;100179.34;;;23.18;48.32
15314;BME280;7757;52.626;4.746;2022-09-29T12:03:36;100179.34;;;23.18;48.36
15314;BME280;7757;52.626;4.746;2022-09-29T12:06:24;100179.63;;;23.17;47.88
15314;BME280;7757;52.626;4.746;2022-09-29T12:09:04;100187.53;;;23.18;47.92
15314;BME280;7757;52.626;4.746;2022-09-29T12:11:45;100187.84;;;23.12;47.97
15314;BME280;7757;52.626;4.746;2022-09-29T12:14:19;100178.31;;;23.14;48.27
15314;BME280;7757;52.626;4.746;2022-09-29T12:16:52;100188.13;;;23.10;48.60
15314;BME280;7757;52.626;4.746;2022-09-29T12:19:23;100187.84;;;23.12;48.20
15314;BME280;7757;52.626;4.746;2022-09-29T12:21:54;100189.78;;;23.11;48.45
15314;BME280;7757;52.626;4.746;2022-09-29T12:24:30;100195.75;;;23.13;48.64
15314;BME280;7757;52.626;4.746;2022-09-29T12:26:58;100196.53;;;23.19;48.41
15314;BME280;7757;52.626;4.746;2022-09-29T12:29:32;100191.91;;;23.19;47.91
15314;BME280;7757;52.626;4.746;2022-09-29T12:32:05;100188.06;;;23.20;47.96
15314;BME280;7757;52.626;4.746;2022-09-29T12:34:41;100195.44;;;23.20;48.22
15314;BME280;7757;52.626;4.746;2022-09-29T12:37:16;100191.59;;;23.21;47.73
15314;BME280;7757;52.626;4.746;2022-09-29T12:39:54;100202.50;;;23.21;48.43
15314;BME280;7757;52.626;4.746;2022-09-29T12:42:34;100196.25;;;23.20;47.86
15314;BME280;7757;52.626;4.746;2022-09-29T12:45:09;100204.34;;;23.30;48.97
15314;BME280;7757;52.626;4.746;2022-09-29T12:47:56;100206.75;;;23.42;48.64
15314;BME280;7757;52.626;4.746;2022-09-29T12:50:27;100201.78;;;23.49;49.22
15314;BME280;7757;52.626;4.746;2022-09-29T12:52:57;100203.94;;;23.52;49.30
15314;BME280;7757;52.626;4.746;2022-09-29T12:55:42;100201.97;;;23.58;48.94
15314;BME280;7757;52.626;4.746;2022-09-29T12:58:14;100201.34;;;23.66;48.76
15314;BME280;7757;52.626;4.746;2022-09-29T13:00:48;100202.09;;;23.71;49.03
15314;BME280;7757;52.626;4.746;2022-09-29T13:03:42;100204.81;;;23.76;49.43
15314;BME280;7757;52.626;4.746;2022-09-29T13:09:53;100212.94;;;23.53;47.62
15314;BME280;7757;52.626;4.746;2022-09-29T13:12:36;100206.50;;;23.39;46.25
15314;BME280;7757;52.626;4.746;2022-09-29T13:15:26;100211.56;;;23.50;47.54
15314;BME280;7757;52.626;4.746;2022-09-29T13:18:03;100219.56;;;23.47;47.87
15314;BME280;7757;52.626;4.746;2022-09-29T13:20:41;100219.50;;;23.52;47.26
15314;BME280;7757;52.626;4.746;2022-09-29T13:23:33;100215.94;;;23.51;47.34
15314;BME280;7757;52.626;4.746;2022-09-29T13:26:15;100223.06;;;23.47;47.59
15314;BME280;7757;52.626;4.746;2022-09-29T13:28:50;100219.56;;;23.47;47.73
15314;BME280;7757;52.626;4.746;2022-09-29T13:31:22;100222.88;;;23.39;47.99
15314;BME280;7757;52.626;4.746;2022-09-29T13:33:52;100218.31;;;23.24;47.52
15314;BME280;7757;52.626;4.746;2022-09-29T13:36:24;100227.81;;;23.31;47.78
15314;BME280;7757;52.626;4.746;2022-09-29T13:38:54;100228.22;;;23.54;48.32
15314;BME280;7757;52.626;4.746;2022-09-29T13:41:33;100225.66;;;23.62;48.34
15314;BME280;7757;52.626;4.746;2022-09-29T13:44:21;100227.25;;;23.68;47.86
15314;BME280;7757;52.626;4.746;2022-09-29T13:46:49;100231.53;;;23.79;48.21